createdAt,value
2023-03-25T00:00:43.986Z,98031.45
2023-03-25T00:06:57.358Z,98032.98
2023-03-25T00:13:04.139Z,98034.33
2023-03-25T00:19:05.944Z,98029.10
2023-03-25T00:25:18.330Z,98020.73
2023-03-25T00:31:19.926Z,98010.31
2023-03-25T00:37:22.088Z,98004.02
2023-03-25T00:43:23.587Z,97995.64
2023-03-25T00:49:27.905Z,97991.52
2023-03-25T00:55:29.471Z,97992.36
2023-03-25T01:01:31.011Z,97998.62
2023-03-25T01:07:32.774Z,97999.17
2023-03-25T01:13:34.743Z,98005.20
2023-03-25T01:19:36.359Z,97995.70
2023-03-25T01:25:37.999Z,97991.02
2023-03-25T01:31:40.470Z,97988.02
2023-03-25T01:37:43.844Z,97991.11
2023-03-25T01:44:05.891Z,97991.20
2023-03-25T01:50:14.059Z,97984.04
2023-03-25T01:56:19.442Z,97985.87
2023-03-25T02:02:24.429Z,97980.30
2023-03-25T02:08:26.178Z,97979.06
2023-03-25T02:14:30.263Z,97970.44
2023-03-25T02:20:40.976Z,97968.07
2023-03-25T02:27:26.672Z,97980.00
2023-03-25T02:33:44.997Z,97977.84
2023-03-25T02:40:06.420Z,97982.31
2023-03-25T02:46:11.554Z,97984.56
2023-03-25T02:52:37.433Z,97986.10
2023-03-25T02:58:39.718Z,97990.69
2023-03-25T03:04:50.981Z,97989.34
2023-03-25T03:11:01.964Z,97992.30
2023-03-25T03:17:12.847Z,97995.42
2023-03-25T03:23:53.985Z,97998.96
2023-03-25T03:30:18.316Z,98003.79
2023-03-25T03:36:23.609Z,98016.38
2023-03-25T03:42:38.345Z,98019.13
2023-03-25T03:48:43.638Z,98032.50
2023-03-25T03:54:49.001Z,98034.27
2023-03-25T04:00:53.852Z,98038.45
2023-03-25T04:07:06.595Z,98045.91
2023-03-25T04:13:11.128Z,98052.71
2023-03-25T04:19:18.996Z,98065.83
2023-03-25T04:25:24.731Z,98072.87
2023-03-25T04:31:30.646Z,98079.53
2023-03-25T04:37:36.352Z,98079.56
2023-03-25T04:43:38.655Z,98083.43
2023-03-25T04:49:44.222Z,98082.11
2023-03-25T04:55:48.751Z,98087.08
2023-03-25T05:01:52.037Z,98099.77
2023-03-25T05:07:54.735Z,98103.43
2023-03-25T05:13:56.389Z,98114.64
2023-03-25T05:19:57.950Z,98117.37
2023-03-25T05:26:02.285Z,98123.20
2023-03-25T05:32:04.091Z,98122.50
2023-03-25T05:38:07.980Z,98120.95
2023-03-25T05:44:14.102Z,98123.83
2023-03-25T05:50:16.165Z,98133.23
2023-03-25T05:56:19.487Z,98132.54
2023-03-25T06:02:21.468Z,98141.50
2023-03-25T06:08:27.375Z,98133.24
2023-03-25T06:14:31.879Z,98132.94
2023-03-25T06:20:33.837Z,98140.39
2023-03-25T06:26:35.513Z,98145.52
2023-03-25T06:32:37.747Z,98150.56
2023-03-25T06:38:39.841Z,98136.90
2023-03-25T06:44:46.560Z,98150.80
2023-03-25T06:51:08.626Z,98162.92
2023-03-25T06:57:10.297Z,98164.91
2023-03-25T07:03:12.597Z,98170.15
2023-03-25T07:09:14.877Z,98160.08
2023-03-25T07:15:16.481Z,98160.64
2023-03-25T07:21:19.076Z,98161.01
2023-03-25T07:27:20.566Z,98163.67
2023-03-25T07:33:30.429Z,98162.16
2023-03-25T07:39:31.902Z,98160.81
2023-03-25T07:45:44.615Z,98156.92
2023-03-25T07:51:46.425Z,98149.24
2023-03-25T07:57:47.959Z,98135.95
2023-03-25T08:03:49.599Z,98133.98
2023-03-25T08:09:51.288Z,98137.74
2023-03-25T08:15:53.439Z,98139.63
2023-03-25T08:21:55.386Z,98140.79
2023-03-25T08:27:57.127Z,98139.38
2023-03-25T08:34:00.258Z,98141.34
2023-03-25T08:40:06.912Z,98142.25
2023-03-25T08:46:08.545Z,98144.39
2023-03-25T08:52:10.180Z,98144.02
2023-03-25T08:58:11.743Z,98128.17
2023-03-25T09:04:13.411Z,98131.68
2023-03-25T09:10:15.271Z,98127.66
2023-03-25T09:16:17.149Z,98121.36
2023-03-25T09:22:18.695Z,98110.98
2023-03-25T09:28:20.401Z,98098.02
2023-03-25T09:34:22.035Z,98086.59
2023-03-25T09:40:24.061Z,98086.80
2023-03-25T09:46:26.032Z,98081.48
2023-03-25T09:52:35.201Z,98081.25
2023-03-25T09:58:43.939Z,98063.89
2023-03-25T10:05:17.859Z,98060.60
2023-03-25T10:11:49.325Z,98057.20
2023-03-25T10:18:14.149Z,98048.02
2023-03-25T10:24:25.017Z,98044.63
2023-03-25T10:30:50.882Z,98044.33
2023-03-25T10:36:57.506Z,98046.80
2023-03-25T10:43:14.263Z,98033.36
2023-03-25T10:49:21.496Z,98022.30
2023-03-25T10:55:25.918Z,98012.20
2023-03-25T11:01:46.232Z,98002.34
2023-03-25T11:07:50.952Z,98002.79
2023-03-25T11:13:56.614Z,97986.90
2023-03-25T11:20:07.221Z,97990.36
2023-03-25T11:26:29.769Z,97989.35
2023-03-25T11:32:39.052Z,97979.20
2023-03-25T11:38:40.973Z,97964.51
2023-03-25T11:44:49.795Z,97958.98
2023-03-25T11:50:57.480Z,97959.30
2023-03-25T11:56:59.160Z,97964.27
2023-03-25T12:03:02.643Z,97961.30
2023-03-25T12:09:09.025Z,97974.96
2023-03-25T12:15:38.055Z,97980.77
2023-03-25T12:22:09.094Z,97987.73
2023-03-25T12:28:55.937Z,98008.93
2023-03-25T12:35:14.668Z,97992.20
2023-03-25T12:41:31.018Z,97982.56
2023-03-25T12:47:32.469Z,97993.45
2023-03-25T12:53:52.754Z,98004.42
2023-03-25T13:00:14.375Z,98011.75
2023-03-25T13:06:43.432Z,98007.31
2023-03-25T13:12:53.346Z,98001.57
2023-03-25T13:19:13.493Z,98006.06
2023-03-25T13:25:25.007Z,97993.58
2023-03-25T13:31:35.479Z,97979.89
2023-03-25T13:37:46.235Z,97980.30
2023-03-25T13:43:55.456Z,97968.54
2023-03-25T13:50:03.129Z,97963.38
2023-03-25T13:56:40.930Z,97958.45
2023-03-25T14:03:11.948Z,97965.89
2023-03-25T14:09:48.690Z,97952.62
2023-03-25T14:15:59.355Z,97954.86
2023-03-25T14:22:07.723Z,97961.79
2023-03-25T14:28:16.113Z,97974.02
2023-03-25T14:34:25.518Z,97969.10
2023-03-25T14:41:02.229Z,97968.80
2023-03-25T14:47:15.375Z,97962.64
2023-03-25T14:53:18.029Z,97958.86
2023-03-25T14:59:26.413Z,97966.55
2023-03-25T15:05:29.445Z,97960.54
2023-03-25T15:11:35.619Z,97955.27
2023-03-25T15:17:48.522Z,97950.94
2023-03-25T15:23:59.636Z,97974.33
2023-03-25T15:30:32.796Z,97970.77
2023-03-25T15:36:52.991Z,97979.96
2023-03-25T15:43:05.391Z,97979.99
2023-03-25T15:49:38.111Z,97983.68
2023-03-25T15:55:45.839Z,97989.48
2023-03-25T16:01:49.137Z,97992.98
2023-03-25T16:07:51.040Z,98002.49
2023-03-25T16:14:07.767Z,98001.76
2023-03-25T16:20:14.821Z,97998.15
2023-03-25T16:26:37.548Z,98007.44
2023-03-25T16:32:39.044Z,98007.54
2023-03-25T16:38:40.958Z,98009.36
2023-03-25T16:44:42.718Z,98015.51
2023-03-25T16:50:45.197Z,98019.80
2023-03-25T16:57:09.633Z,98020.48
2023-03-25T17:03:41.982Z,98027.83
2023-03-25T17:09:50.057Z,98039.86
2023-03-25T17:15:56.110Z,98039.27
2023-03-25T17:22:31.602Z,98039.98
2023-03-25T17:28:42.613Z,98046.64
2023-03-25T17:34:55.195Z,98053.87
2023-03-25T17:41:05.779Z,98062.81
2023-03-25T17:47:12.944Z,98074.48
2023-03-25T17:53:14.478Z,98077.73
2023-03-25T17:59:18.659Z,98073.83
2023-03-25T18:05:20.577Z,98077.61
2023-03-25T18:11:25.093Z,98068.52
2023-03-25T18:17:26.614Z,98075.64
2023-03-25T18:23:28.292Z,98078.83
2023-03-25T18:29:30.529Z,98079.82
2023-03-25T18:35:33.326Z,98073.13
2023-03-25T18:41:34.983Z,98071.46
2023-03-25T18:47:37.738Z,98073.08
2023-03-25T18:53:40.209Z,98068.45
2023-03-25T18:59:41.809Z,98070.75
2023-03-25T19:05:44.607Z,98080.05
2023-03-25T19:11:46.693Z,98089.68
2023-03-25T19:17:48.643Z,98088.09
2023-03-25T19:23:51.449Z,98087.28
2023-03-25T19:29:55.266Z,98081.36
2023-03-25T19:36:00.429Z,98086.44
2023-03-25T19:42:03.600Z,98090.33
2023-03-25T19:48:05.337Z,98085.77
2023-03-25T19:54:09.261Z,98092.38
2023-03-25T20:00:16.862Z,98088.83
2023-03-25T20:06:19.162Z,98092.92
2023-03-25T20:12:21.112Z,98097.63
2023-03-25T20:18:24.423Z,98100.52
2023-03-25T20:24:26.141Z,98099.08
2023-03-25T20:30:43.480Z,98096.09
2023-03-25T20:36:55.877Z,98092.21
2023-03-25T20:42:58.289Z,98088.80
2023-03-25T20:49:02.649Z,98091.28
2023-03-25T20:55:05.156Z,98090.85
2023-03-25T21:01:08.523Z,98095.77
2023-03-25T21:07:11.231Z,98096.90
2023-03-25T21:13:14.167Z,98101.10
2023-03-25T21:19:15.859Z,98097.02
2023-03-25T21:25:20.433Z,98103.32
2023-03-25T21:31:24.931Z,98110.21
2023-03-25T21:37:29.147Z,98105.45
2023-03-25T21:43:35.124Z,98102.77
2023-03-25T21:49:37.597Z,98106.13
2023-03-25T21:55:39.272Z,98109.48
2023-03-25T22:01:41.053Z,98114.74
2023-03-25T22:07:43.028Z,98125.89
2023-03-25T22:13:45.165Z,98130.39
2023-03-25T22:19:50.431Z,98136.20
2023-03-25T22:25:52.107Z,98151.03
2023-03-25T22:31:55.134Z,98160.84
2023-03-25T22:37:56.672Z,98164.55
2023-03-25T22:43:58.512Z,98170.82
2023-03-25T22:50:00.329Z,98169.98
2023-03-25T22:56:02.946Z,98180.60
2023-03-25T23:02:04.804Z,98177.93
2023-03-25T23:08:06.879Z,98177.66
2023-03-25T23:14:11.461Z,98181.52
2023-03-25T23:20:13.015Z,98169.59
2023-03-25T23:26:20.990Z,98162.73
2023-03-25T23:32:23.018Z,98162.51
2023-03-25T23:38:24.571Z,98167.76
2023-03-25T23:44:26.767Z,98167.86
2023-03-25T23:50:28.304Z,98170.73
2023-03-25T23:56:30.691Z,98172.55
